This is the latest recevied weather packets stored in our database for station/object SR5NLK-1. If no packets are shown the sender has not sent any weather packets the latest 10 day(s).
| Time | Temp. | Humidity | Pressure | Rain* | Wind** | Luminosity | Snow |
|---|---|---|---|---|---|---|---|
| 1787660445 | 22.78° C | 49% | 994.7 hPa | 0 mm | - | - | - |
| 1787660404 | 23.33° C | 49% | 964.3 hPa | 0 mm | - | - | - |
| 1787660298 | 22.78° C | 49% | 1049.1 hPa | 0 mm | - | - | - |
| 1787660139 | 22.78° C | 48% | 1035.1 hPa | 0 mm | - | - | - |
| 1787660104 | 22.78° C | 49% | 1090.9 hPa | 0 mm | - | - | - |
| 1787659928 | 23.89° C | 47% | 1094.1 hPa | 0 mm | - | - | - |
| 1787659804 | 23.33° C | 49% | 1020.8 hPa | 0 mm | - | - | - |
| 1787659751 | 23.33° C | 49% | 1079.9 hPa | 0 mm | - | - | - |
| 1787659620 | 23.89° C | 48% | 1079.5 hPa | 0 mm | - | - | - |
| 1787659504 | 23.33° C | 49% | 1079.9 hPa | 0 mm | - | - | - |
| 1787659452 | 23.89° C | 47% | 1042.8 hPa | 0 mm | - | - | - |
| 1787659443 | 23.33° C | 50% | 1052.2 hPa | 0 mm | - | - | - |
| 1787659204 | 23.33° C | 50% | 1087.8 hPa | 0 mm | - | - | - |
| 1787659056 | 23.89° C | 47% | 1097.2 hPa | 0 mm | - | - | - |
| 1787658904 | 22.78° C | 50% | 1035.4 hPa | 0 mm | - | - | - |
| 1787658880 | 23.89° C | 47% | 1035.1 hPa | 0 mm | - | - | - |
| 1787658685 | 23.89° C | 49% | 1084.6 hPa | 0 mm | - | - | - |
| 1787658604 | 22.78° C | 50% | 1001 hPa | 0 mm | - | - | - |
| 1787658366 | 23.89° C | 49% | 1069 hPa | 0 mm | - | - | - |
| 1787658304 | 22.78° C | 50% | 1036.6 hPa | 0 mm | - | - | - |
| 1787658145 | 23.89° C | 49% | 1027.1 hPa | 0 mm | - | - | - |
| 1787658007 | 23.89° C | 49% | 1041.5 hPa | 0 mm | - | - | - |
| 1787658004 | 22.78° C | 49% | 994.7 hPa | 0 mm | - | - | - |
| 1787657704 | 22.78° C | 49% | 1049.1 hPa | 0 mm | - | - | - |
| 1787657703 | 23.33° C | 50% | 1081.5 hPa | 0 mm | - | - | - |
* Rain latest hour (hover to see other rain measurements)
** Current wind speed in m/s (hover to see current wind gust speed)